Terminal Aerodrome Forecast
Issued by NWS Quad Cities IA IL

Home | Current Version | Previous Version | Text Only | Print | Product List | Glossary On
Versions: 1 2 3 4 5 6 7 8 9 10 11 12 13
000
FTUS43 KDVN 301100
TAFMLI
TAF
KMLI 301121Z 3012/0112 08012KT P6SM OVC011
     FM301700 09011KT P6SM OVC017
     FM302100 09009KT P6SM BKN025
     FM010000 10006KT P6SM BKN200
      AMD NOT SKED=

USA.gov is the U.S. government's official web portal to all federal, state and local government web resources and services.